Time;durP1;ratioP1;P1;durP2;ratioP2;P2;SDS_P1;SDS_P2;PMS_P1;PMS_P2;Temp;Humidity;BMP_temperature;BMP_pressure;BME280_temperature;BME280_humidity;BME280_pressure;Samples;Min_cycle;Max_cycle;Signal;HPM_P1;HPM_P2
2023/12/10 00:00:23;;;;;;;16.02;1.85;;;;;;;;;;5050083;28;20037;-66
2023/12/10 00:02:49;;;;;;;13.90;2.40;;;;;;;;;;5049595;28;20094;-66
2023/12/10 00:05:14;;;;;;;8.80;2.28;;;;;;;;;;5049931;28;20052;-65
2023/12/10 00:07:39;;;;;;;11.70;1.83;;;;;;;;;;5049982;28;20142;-66
2023/12/10 00:10:05;;;;;;;10.30;2.28;;;;;;;;;;5048762;28;20032;-66
2023/12/10 00:12:30;;;;;;;10.50;1.73;;;;;;;;;;5049627;28;20048;-65
2023/12/10 00:14:57;;;;;;;15.23;2.10;;;;;;;;;;5049825;28;20036;-65
2023/12/10 00:17:23;;;;;;;22.65;2.28;;;;;;;;;;5049652;28;20043;-66
2023/12/10 00:19:48;;;;;;;15.52;1.95;;;;;;;;;;5049708;28;21355;-65
2023/12/10 00:22:13;;;;;;;11.95;2.15;;;;;;;;;;5049639;28;20037;-65
2023/12/10 00:24:39;;;;;;;14.90;2.97;;;;;;;;;;5049406;28;20029;-66
2023/12/10 00:27:04;;;;;;;17.05;2.15;;;;;;;;;;5049494;28;20051;-65
2023/12/10 00:29:29;;;;;;;15.73;1.60;;;;;;;;;;5036982;28;20473;-65
2023/12/10 00:31:55;;;;;;;12.77;1.92;;;;;;;;;;5049674;28;20059;-66
2023/12/10 00:34:20;;;;;;;11.02;1.90;;;;;;;;;;5049934;28;20071;-66
2023/12/10 00:36:45;;;;;;;7.78;1.38;;;;;;;;;;5053268;28;20052;-66
2023/12/10 00:39:11;;;;;;;20.75;2.40;;;;;;;;;;5053095;28;20032;-65
2023/12/10 00:41:36;;;;;;;16.67;1.85;;;;;;;;;;5052983;28;20044;-65
2023/12/10 00:44:03;;;;;;;9.90;1.95;;;;;;;;;;5053162;28;20420;-67
2023/12/10 00:46:28;;;;;;;14.48;2.10;;;;;;;;;;5052849;28;20032;-65
2023/12/10 00:48:53;;;;;;;18.73;2.60;;;;;;;;;;5053148;28;20036;-67
2023/12/10 00:51:22;;;;;;;10.77;1.92;;;;;;;;;;5052924;28;20427;-66
2023/12/10 00:53:48;;;;;;;6.97;1.83;;;;;;;;;;5052699;28;20037;-67
2023/12/10 00:56:13;;;;;;;10.30;2.35;;;;;;;;;;5052832;28;20519;-65
2023/12/10 00:58:39;;;;;;;17.80;2.75;;;;;;;;;;5052865;28;20119;-66
2023/12/10 01:01:04;;;;;;;13.60;2.08;;;;;;;;;;5052456;28;20079;-66
2023/12/10 01:03:30;;;;;;;12.10;2.08;;;;;;;;;;5052739;28;20044;-65
2023/12/10 01:05:55;;;;;;;25.08;2.88;;;;;;;;;;5052807;28;20522;-66
2023/12/10 01:08:20;;;;;;;12.60;2.90;;;;;;;;;;5052081;28;20033;-65
2023/12/10 01:10:46;;;;;;;14.80;1.80;;;;;;;;;;5052685;28;20139;-66
2023/12/10 01:13:11;;;;;;;8.05;2.60;;;;;;;;;;5052667;28;20032;-65
2023/12/10 01:15:36;;;;;;;18.63;2.20;;;;;;;;;;5052389;28;20033;-66
2023/12/10 01:18:02;;;;;;;16.65;2.20;;;;;;;;;;5052471;28;20116;-66
2023/12/10 01:20:29;;;;;;;12.55;1.85;;;;;;;;;;5052304;28;20045;-65
2023/12/10 01:22:54;;;;;;;18.95;2.47;;;;;;;;;;5050991;28;20130;-66
2023/12/10 01:25:19;;;;;;;13.57;2.17;;;;;;;;;;5052283;28;20547;-65
2023/12/10 01:27:45;;;;;;;16.70;2.70;;;;;;;;;;5052307;28;20037;-65
2023/12/10 01:30:10;;;;;;;15.75;2.30;;;;;;;;;;5051815;28;20033;-66
2023/12/10 01:32:36;;;;;;;18.27;2.40;;;;;;;;;;5051773;28;20061;-65
2023/12/10 01:35:01;;;;;;;10.98;1.58;;;;;;;;;;5050974;28;20115;-65
2023/12/10 01:37:26;;;;;;;15.60;1.58;;;;;;;;;;5051741;28;20056;-65
2023/12/10 01:39:52;;;;;;;10.55;2.03;;;;;;;;;;5052057;28;20397;-66
2023/12/10 01:42:17;;;;;;;10.57;1.83;;;;;;;;;;5051997;28;20071;-65
2023/12/10 01:44:43;;;;;;;14.43;1.63;;;;;;;;;;5050109;28;20076;-65
2023/12/10 01:47:10;;;;;;;10.05;1.75;;;;;;;;;;5051641;28;20041;-66
2023/12/10 01:49:36;;;;;;;11.15;1.90;;;;;;;;;;5051558;28;20591;-65
2023/12/10 01:52:02;;;;;;;10.88;1.73;;;;;;;;;;5050303;28;20032;-65
2023/12/10 01:54:27;;;;;;;8.73;1.52;;;;;;;;;;5051843;28;20148;-65
2023/12/10 01:56:53;;;;;;;17.60;1.98;;;;;;;;;;5050397;28;20536;-66
2023/12/10 01:59:18;;;;;;;13.10;1.65;;;;;;;;;;5050301;28;20040;-65
2023/12/10 02:01:44;;;;;;;14.63;2.28;;;;;;;;;;5051687;28;20468;-65
2023/12/10 02:04:11;;;;;;;9.38;2.15;;;;;;;;;;5051490;28;20672;-65
2023/12/10 02:06:37;;;;;;;9.88;2.25;;;;;;;;;;5051079;28;20040;-66
2023/12/10 02:09:05;;;;;;;17.52;2.28;;;;;;;;;;5051607;28;20040;-65
2023/12/10 02:11:31;;;;;;;5.20;1.30;;;;;;;;;;5051354;28;20043;-65
2023/12/10 02:13:58;;;;;;;14.35;2.13;;;;;;;;;;5051218;28;20025;-66
2023/12/10 02:16:23;;;;;;;15.48;1.98;;;;;;;;;;5051366;28;20091;-66
2023/12/10 02:18:49;;;;;;;19.45;2.28;;;;;;;;;;5051266;28;20522;-67
2023/12/10 02:21:14;;;;;;;17.92;1.90;;;;;;;;;;5051135;28;20043;-65
2023/12/10 02:24:05;;;;;;;14.63;1.98;;;;;;;;;;5050008;28;20063;-67
2023/12/10 02:26:30;;;;;;;14.88;1.77;;;;;;;;;;5051123;28;20040;-65
2023/12/10 02:28:56;;;;;;;9.50;1.33;;;;;;;;;;5049752;28;20492;-65
2023/12/10 02:31:21;;;;;;;8.18;1.88;;;;;;;;;;5038412;28;20061;-65
2023/12/10 02:33:47;;;;;;;7.85;1.88;;;;;;;;;;5051071;28;20025;-65
2023/12/10 02:36:13;;;;;;;12.95;2.08;;;;;;;;;;5050822;28;20468;-65
2023/12/10 02:38:38;;;;;;;12.25;1.92;;;;;;;;;;5049475;28;20040;-65
2023/12/10 02:41:04;;;;;;;15.95;2.30;;;;;;;;;;5049706;28;20025;-66
2023/12/10 02:43:29;;;;;;;13.98;2.17;;;;;;;;;;5050740;28;20482;-66
2023/12/10 02:45:54;;;;;;;13.48;1.83;;;;;;;;;;5050773;28;20033;-66
2023/12/10 02:48:22;;;;;;;11.00;1.63;;;;;;;;;;5050411;28;20061;-66
2023/12/10 02:50:49;;;;;;;22.38;2.30;;;;;;;;;;5050287;28;20486;-66
2023/12/10 02:53:14;;;;;;;20.13;2.88;;;;;;;;;;5050794;28;20120;-65
2023/12/10 02:55:40;;;;;;;9.77;1.95;;;;;;;;;;5050455;28;20107;-65
2023/12/10 02:58:05;;;;;;;7.90;1.60;;;;;;;;;;5050255;28;20041;-65
2023/12/10 03:00:31;;;;;;;14.88;2.00;;;;;;;;;;5050399;28;20033;-65
2023/12/10 03:02:56;;;;;;;12.27;1.70;;;;;;;;;;5050617;28;20040;-65
2023/12/10 03:05:21;;;;;;;14.07;1.80;;;;;;;;;;5050065;28;20086;-65
2023/12/10 03:07:47;;;;;;;18.90;2.22;;;;;;;;;;5050708;28;20128;-66
2023/12/10 03:10:12;;;;;;;16.63;2.75;;;;;;;;;;5050411;28;20491;-65
2023/12/10 03:12:37;;;;;;;24.38;3.00;;;;;;;;;;5050400;28;20032;-66
2023/12/10 03:15:03;;;;;;;14.55;2.20;;;;;;;;;;5050540;28;20065;-66
2023/12/10 03:17:29;;;;;;;19.90;2.28;;;;;;;;;;5048746;28;20078;-65
2023/12/10 03:19:54;;;;;;;12.60;1.90;;;;;;;;;;5049155;28;20037;-66
2023/12/10 03:22:19;;;;;;;15.23;1.98;;;;;;;;;;5050247;28;20352;-65
2023/12/10 03:24:45;;;;;;;13.80;1.92;;;;;;;;;;5050387;28;20044;-65
2023/12/10 03:27:10;;;;;;;12.00;1.63;;;;;;;;;;5050210;28;20052;-65
2023/12/10 03:29:36;;;;;;;22.02;1.90;;;;;;;;;;5049965;28;20750;-66
2023/12/10 03:32:01;;;;;;;8.75;1.80;;;;;;;;;;5050257;28;20044;-65
2023/12/10 03:34:26;;;;;;;10.75;1.85;;;;;;;;;;5050149;28;20033;-66
2023/12/10 03:36:52;;;;;;;9.55;1.33;;;;;;;;;;5048857;28;20069;-66
2023/12/10 03:39:17;;;;;;;28.35;2.40;;;;;;;;;;5050322;28;20032;-66
2023/12/10 03:41:42;;;;;;;18.25;2.08;;;;;;;;;;5049956;28;20491;-65
2023/12/10 03:44:08;;;;;;;15.90;1.77;;;;;;;;;;5050095;28;20653;-66
2023/12/10 03:46:33;;;;;;;15.20;2.00;;;;;;;;;;5049196;28;20032;-65
2023/12/10 03:48:58;;;;;;;12.15;2.05;;;;;;;;;;5049971;28;20040;-66
2023/12/10 03:51:24;;;;;;;6.60;2.35;;;;;;;;;;5047070;28;20035;-66
2023/12/10 03:53:49;;;;;;;13.00;2.55;;;;;;;;;;5050054;28;20068;-66
2023/12/10 03:56:14;;;;;;;12.40;1.98;;;;;;;;;;5049815;28;20469;-66
2023/12/10 03:58:40;;;;;;;5.05;1.75;;;;;;;;;;5050096;28;20683;-66
2023/12/10 04:01:05;;;;;;;13.25;1.63;;;;;;;;;;5046646;28;20381;-66
2023/12/10 04:03:31;;;;;;;13.13;1.75;;;;;;;;;;5049934;28;20465;-65
2023/12/10 04:05:56;;;;;;;8.63;1.27;;;;;;;;;;5048066;28;20110;-66
2023/12/10 04:08:21;;;;;;;6.55;1.08;;;;;;;;;;5050850;28;20055;-65
2023/12/10 04:10:47;;;;;;;14.15;1.65;;;;;;;;;;5053613;28;20071;-66
2023/12/10 04:13:12;;;;;;;5.85;1.30;;;;;;;;;;5053292;28;20411;-65
2023/12/10 04:15:37;;;;;;;6.60;2.10;;;;;;;;;;5053492;28;20036;-66
2023/12/10 04:18:03;;;;;;;11.48;1.42;;;;;;;;;;5053553;28;20063;-66
2023/12/10 04:20:28;;;;;;;11.68;2.10;;;;;;;;;;5053549;28;20118;-65
2023/12/10 04:22:53;;;;;;;9.75;2.03;;;;;;;;;;5053629;28;20107;-65
2023/12/10 04:25:19;;;;;;;7.45;1.52;;;;;;;;;;5053312;28;20040;-67
2023/12/10 04:27:44;;;;;;;10.00;1.73;;;;;;;;;;5053296;28;20041;-66
2023/12/10 04:30:10;;;;;;;8.07;1.90;;;;;;;;;;5053132;28;20032;-66
2023/12/10 04:32:35;;;;;;;14.02;1.42;;;;;;;;;;5052928;28;20048;-66
2023/12/10 04:35:01;;;;;;;24.65;1.70;;;;;;;;;;5053300;28;20048;-65
2023/12/10 04:37:26;;;;;;;10.70;1.90;;;;;;;;;;5053318;28;20032;-66
2023/12/10 04:39:53;;;;;;;12.30;1.67;;;;;;;;;;5051696;28;20047;-65
2023/12/10 04:42:18;;;;;;;8.10;1.35;;;;;;;;;;5053332;28;20071;-65
2023/12/10 04:44:43;;;;;;;13.07;2.05;;;;;;;;;;5053048;28;20033;-66
2023/12/10 04:47:09;;;;;;;11.52;1.10;;;;;;;;;;5052707;28;20051;-67
2023/12/10 04:49:34;;;;;;;15.55;2.25;;;;;;;;;;5052466;28;20041;-66
2023/12/10 04:52:00;;;;;;;10.27;1.20;;;;;;;;;;5045323;28;20030;-66
2023/12/10 04:54:26;;;;;;;15.15;2.20;;;;;;;;;;5052671;28;20527;-65
2023/12/10 04:56:51;;;;;;;11.77;1.58;;;;;;;;;;5052546;28;20530;-65
2023/12/10 04:59:16;;;;;;;19.23;1.50;;;;;;;;;;5052695;28;20033;-65
2023/12/10 05:01:42;;;;;;;8.35;1.17;;;;;;;;;;5050606;28;20041;-65
2023/12/10 05:04:08;;;;;;;14.95;1.90;;;;;;;;;;5052379;28;20475;-65
2023/12/10 05:06:33;;;;;;;9.15;1.40;;;;;;;;;;5051140;28;20021;-66
2023/12/10 05:08:58;;;;;;;10.48;2.03;;;;;;;;;;5052474;28;20087;-65
2023/12/10 05:11:24;;;;;;;6.38;1.33;;;;;;;;;;5052681;28;20067;-66
2023/12/10 05:13:49;;;;;;;13.98;1.33;;;;;;;;;;5052561;28;20071;-66
2023/12/10 05:16:15;;;;;;;9.23;1.30;;;;;;;;;;5052316;28;20037;-66
2023/12/10 05:18:40;;;;;;;9.43;1.80;;;;;;;;;;5052810;28;20607;-66
2023/12/10 05:21:06;;;;;;;9.60;1.10;;;;;;;;;;5052243;28;20111;-65
2023/12/10 05:23:31;;;;;;;6.80;1.40;;;;;;;;;;5051809;28;20072;-65
2023/12/10 05:25:56;;;;;;;12.52;1.45;;;;;;;;;;5052333;28;20037;-65
2023/12/10 05:28:21;;;;;;;12.88;1.55;;;;;;;;;;5049839;28;20054;-65
2023/12/10 05:30:47;;;;;;;13.88;2.47;;;;;;;;;;5051731;28;20056;-65
2023/12/10 05:33:12;;;;;;;10.77;1.58;;;;;;;;;;5051913;28;20488;-66
2023/12/10 05:35:38;;;;;;;9.45;1.13;;;;;;;;;;5052029;28;20036;-65
2023/12/10 05:38:03;;;;;;;7.90;1.40;;;;;;;;;;5052050;28;20394;-65
2023/12/10 05:40:29;;;;;;;3.80;0.98;;;;;;;;;;5052230;28;20078;-65
2023/12/10 05:42:54;;;;;;;8.30;1.45;;;;;;;;;;5051996;28;20025;-65
2023/12/10 05:45:20;;;;;;;8.90;1.20;;;;;;;;;;5051813;28;20033;-66
2023/12/10 05:47:45;;;;;;;9.27;1.52;;;;;;;;;;5051331;28;20044;-66
2023/12/10 05:50:10;;;;;;;4.28;1.73;;;;;;;;;;5050417;28;20120;-65
2023/12/10 05:52:36;;;;;;;7.60;1.02;;;;;;;;;;5051762;28;20076;-67
2023/12/10 05:55:01;;;;;;;7.05;1.58;;;;;;;;;;5051992;28;20059;-65
2023/12/10 05:57:27;;;;;;;8.00;1.48;;;;;;;;;;5051376;28;20028;-66
2023/12/10 05:59:53;;;;;;;5.70;1.05;;;;;;;;;;5051565;28;20048;-67
2023/12/10 06:02:18;;;;;;;11.50;1.48;;;;;;;;;;5051420;28;20033;-66
2023/12/10 06:04:43;;;;;;;12.07;1.60;;;;;;;;;;5051804;28;20055;-66
2023/12/10 06:07:09;;;;;;;12.73;1.40;;;;;;;;;;5050682;28;20037;-65
2023/12/10 06:09:34;;;;;;;4.32;0.85;;;;;;;;;;5051667;28;20041;-66
2023/12/10 06:11:59;;;;;;;8.30;1.50;;;;;;;;;;5051545;28;20120;-65
2023/12/10 06:14:25;;;;;;;8.93;1.73;;;;;;;;;;5051172;28;20346;-66
2023/12/10 06:16:50;;;;;;;12.32;1.58;;;;;;;;;;5051393;28;20116;-66
2023/12/10 06:19:15;;;;;;;3.67;1.10;;;;;;;;;;5051413;28;20033;-65
2023/12/10 06:21:41;;;;;;;15.80;1.58;;;;;;;;;;5051107;28;20369;-67
2023/12/10 06:24:06;;;;;;;13.05;1.40;;;;;;;;;;5051299;28;20048;-65
2023/12/10 06:26:31;;;;;;;12.30;1.88;;;;;;;;;;5049918;28;20083;-65
2023/12/10 06:28:57;;;;;;;6.22;1.08;;;;;;;;;;5050840;28;20044;-67
2023/12/10 06:31:22;;;;;;;14.65;1.70;;;;;;;;;;5050539;28;20427;-67
2023/12/10 06:33:48;;;;;;;9.05;1.35;;;;;;;;;;5051080;28;20037;-67
2023/12/10 06:36:13;;;;;;;11.40;1.13;;;;;;;;;;5049503;28;20033;-67
2023/12/10 06:38:39;;;;;;;10.20;1.05;;;;;;;;;;5050929;28;20045;-65
2023/12/10 06:41:05;;;;;;;13.00;1.33;;;;;;;;;;5050924;28;20033;-65
2023/12/10 06:43:31;;;;;;;10.07;1.40;;;;;;;;;;5050922;28;20037;-66
2023/12/10 06:45:58;;;;;;;11.82;1.65;;;;;;;;;;5050628;28;20041;-65
2023/12/10 06:48:23;;;;;;;12.77;1.92;;;;;;;;;;5050871;28;20039;-66
2023/12/10 06:50:49;;;;;;;11.23;1.50;;;;;;;;;;5050615;28;20040;-67
2023/12/10 06:53:14;;;;;;;13.15;1.95;;;;;;;;;;5050660;28;20044;-65
2023/12/10 06:55:40;;;;;;;15.88;1.75;;;;;;;;;;5050343;28;20033;-66
2023/12/10 06:58:05;;;;;;;9.60;2.03;;;;;;;;;;5050310;28;20047;-65
2023/12/10 07:00:31;;;;;;;12.88;1.50;;;;;;;;;;5050699;28;20045;-65
2023/12/10 07:02:56;;;;;;;10.77;1.25;;;;;;;;;;5050595;28;20029;-66
2023/12/10 07:05:21;;;;;;;11.57;1.95;;;;;;;;;;5048857;28;20033;-66
2023/12/10 07:07:47;;;;;;;9.02;1.52;;;;;;;;;;5050452;28;20048;-65
2023/12/10 07:10:12;;;;;;;8.73;1.45;;;;;;;;;;5047926;28;20037;-65
2023/12/10 07:12:38;;;;;;;11.07;1.60;;;;;;;;;;5046020;28;20033;-65
2023/12/10 07:15:04;;;;;;;10.15;1.52;;;;;;;;;;5044440;28;20045;-65
2023/12/10 07:17:29;;;;;;;4.65;1.10;;;;;;;;;;5050002;28;20120;-66
2023/12/10 07:19:55;;;;;;;20.88;2.05;;;;;;;;;;5049291;28;20029;-66
2023/12/10 07:22:21;;;;;;;19.08;2.13;;;;;;;;;;5045312;28;20585;-66
2023/12/10 07:24:46;;;;;;;21.02;3.15;;;;;;;;;;5049520;28;20071;-66
2023/12/10 07:27:11;;;;;;;29.67;3.65;;;;;;;;;;5050074;28;20135;-65
2023/12/10 07:29:37;;;;;;;21.83;2.88;;;;;;;;;;5049220;28;20037;-66
2023/12/10 07:32:02;;;;;;;23.20;2.42;;;;;;;;;;5050300;28;20485;-66
2023/12/10 07:34:28;;;;;;;12.77;1.98;;;;;;;;;;5050172;28;20087;-66
2023/12/10 07:36:53;;;;;;;22.52;4.43;;;;;;;;;;5049981;28;20103;-66
2023/12/10 07:39:19;;;;;;;24.10;4.47;;;;;;;;;;5050222;28;20055;-66
2023/12/10 07:41:44;;;;;;;25.52;3.63;;;;;;;;;;5050138;28;20191;-66
2023/12/10 07:44:09;;;;;;;24.48;3.72;;;;;;;;;;5052023;28;20052;-65
2023/12/10 07:46:35;;;;;;;38.10;3.55;;;;;;;;;;5054154;28;20431;-65
2023/12/10 07:49:00;;;;;;;32.53;5.57;;;;;;;;;;5054229;28;20649;-66
2023/12/10 07:51:25;;;;;;;30.00;3.78;;;;;;;;;;5054069;28;20036;-66
2023/12/10 07:53:51;;;;;;;22.40;4.53;;;;;;;;;;5054060;28;20024;-67
2023/12/10 07:56:16;;;;;;;32.60;3.65;;;;;;;;;;5054010;28;20119;-66
2023/12/10 07:58:41;;;;;;;22.30;4.15;;;;;;;;;;5053812;28;20071;-66
2023/12/10 08:01:09;;;;;;;26.33;3.83;;;;;;;;;;5053742;28;20393;-66
2023/12/10 08:03:35;;;;;;;33.17;4.40;;;;;;;;;;5053709;28;20037;-66
2023/12/10 08:06:00;;;;;;;22.38;3.08;;;;;;;;;;5053731;28;20369;-65
2023/12/10 08:08:26;;;;;;;38.83;5.03;;;;;;;;;;5053663;28;20112;-66
2023/12/10 08:10:51;;;;;;;31.83;4.68;;;;;;;;;;5053426;28;20040;-66
2023/12/10 08:13:16;;;;;;;23.63;3.88;;;;;;;;;;5053702;28;20044;-65
2023/12/10 08:15:42;;;;;;;36.88;3.97;;;;;;;;;;5053603;28;20090;-66
2023/12/10 08:18:07;;;;;;;33.65;4.25;;;;;;;;;;5053507;28;20668;-67
2023/12/10 08:20:33;;;;;;;29.92;4.35;;;;;;;;;;5052895;28;20462;-65
2023/12/10 08:22:59;;;;;;;37.70;4.80;;;;;;;;;;5052751;28;20461;-65
2023/12/10 08:25:24;;;;;;;31.52;4.38;;;;;;;;;;5051925;28;20071;-65
2023/12/10 08:27:50;;;;;;;34.45;4.97;;;;;;;;;;5053307;28;20476;-66
2023/12/10 08:30:15;;;;;;;33.53;4.93;;;;;;;;;;5053365;28;20116;-65
2023/12/10 08:32:41;;;;;;;22.60;3.85;;;;;;;;;;5053186;28;20102;-65
2023/12/10 08:35:06;;;;;;;25.30;4.50;;;;;;;;;;5053285;28;20044;-67
2023/12/10 08:37:32;;;;;;;27.05;4.25;;;;;;;;;;5053129;28;20044;-66
2023/12/10 08:39:57;;;;;;;27.10;3.47;;;;;;;;;;5053111;28;20036;-66
2023/12/10 08:42:23;;;;;;;32.42;3.75;;;;;;;;;;5051974;28;20094;-66
2023/12/10 08:44:48;;;;;;;28.63;4.00;;;;;;;;;;5053136;28;20035;-66
2023/12/10 08:47:13;;;;;;;22.70;4.10;;;;;;;;;;5053099;28;20182;-67
2023/12/10 08:49:39;;;;;;;24.17;3.42;;;;;;;;;;5052792;28;20094;-65
2023/12/10 08:52:04;;;;;;;23.13;4.18;;;;;;;;;;5052878;28;20021;-66
2023/12/10 08:54:30;;;;;;;28.15;4.50;;;;;;;;;;5051166;28;20049;-66
2023/12/10 08:56:56;;;;;;;34.47;4.05;;;;;;;;;;5051392;28;20489;-66
2023/12/10 08:59:21;;;;;;;27.90;4.32;;;;;;;;;;5052856;28;20036;-65
2023/12/10 09:01:46;;;;;;;25.92;3.47;;;;;;;;;;5052805;28;20043;-66
2023/12/10 09:04:12;;;;;;;35.67;4.03;;;;;;;;;;5051946;28;20047;-65
2023/12/10 09:06:37;;;;;;;19.27;4.22;;;;;;;;;;5052771;28;20059;-66
2023/12/10 09:09:03;;;;;;;26.80;4.07;;;;;;;;;;5052778;28;20084;-66
2023/12/10 09:11:30;;;;;;;24.38;3.65;;;;;;;;;;5052272;28;20066;-67
2023/12/10 09:13:55;;;;;;;22.20;3.53;;;;;;;;;;5052588;28;20027;-66
2023/12/10 09:16:21;;;;;;;25.73;3.97;;;;;;;;;;5052570;28;20029;-66
2023/12/10 09:18:47;;;;;;;37.22;3.63;;;;;;;;;;5052301;28;20040;-67
2023/12/10 09:21:12;;;;;;;27.17;4.00;;;;;;;;;;5052444;28;20037;-65
2023/12/10 09:23:38;;;;;;;18.52;3.17;;;;;;;;;;5052314;28;20075;-66
2023/12/10 09:26:03;;;;;;;32.30;3.92;;;;;;;;;;5052214;28;20064;-67
2023/12/10 09:28:29;;;;;;;30.27;3.80;;;;;;;;;;5052355;28;20037;-66
2023/12/10 09:30:54;;;;;;;24.95;3.67;;;;;;;;;;5052208;28;20044;-67
2023/12/10 09:33:19;;;;;;;28.73;4.03;;;;;;;;;;5051772;28;20157;-66
2023/12/10 09:35:45;;;;;;;30.38;3.42;;;;;;;;;;5052095;28;20029;-66
2023/12/10 09:38:10;;;;;;;21.65;3.38;;;;;;;;;;5052036;28;20037;-66
2023/12/10 09:40:35;;;;;;;18.23;3.58;;;;;;;;;;5041999;28;20044;-67
2023/12/10 09:43:03;;;;;;;16.15;3.72;;;;;;;;;;5048252;28;20029;-66
2023/12/10 09:45:29;;;;;;;21.13;3.55;;;;;;;;;;5051129;28;20424;-67
2023/12/10 09:47:55;;;;;;;31.80;3.50;;;;;;;;;;5051597;28;20036;-66
2023/12/10 09:50:23;;;;;;;27.60;3.60;;;;;;;;;;5051686;28;20480;-66
2023/12/10 09:52:48;;;;;;;32.45;3.90;;;;;;;;;;5050433;28;20029;-67
2023/12/10 09:55:13;;;;;;;35.67;3.70;;;;;;;;;;5051494;28;20052;-66
2023/12/10 09:57:39;;;;;;;30.25;3.80;;;;;;;;;;5050750;28;20032;-65
2023/12/10 10:00:06;;;;;;;42.38;4.15;;;;;;;;;;5050826;28;20123;-67
2023/12/10 10:02:32;;;;;;;24.00;4.07;;;;;;;;;;5051065;28;20041;-66
2023/12/10 10:04:57;;;;;;;29.50;4.68;;;;;;;;;;5050304;28;20045;-66
2023/12/10 10:07:23;;;;;;;33.70;3.97;;;;;;;;;;5049286;28;20095;-66
2023/12/10 10:09:48;;;;;;;21.70;4.03;;;;;;;;;;5051412;28;20045;-67
2023/12/10 10:12:14;;;;;;;36.03;4.00;;;;;;;;;;5051571;28;20044;-66
2023/12/10 10:14:53;;;;;;;26.83;2.90;;;;;;;;;;5051536;28;20032;-67
2023/12/10 10:17:29;;;;;;;32.00;3.50;;;;;;;;;;5051347;28;20424;-66
2023/12/10 10:19:55;;;;;;;24.20;3.35;;;;;;;;;;5038029;28;20479;-66
2023/12/10 10:22:24;;;;;;;26.88;3.65;;;;;;;;;;5050962;28;20119;-66
2023/12/10 10:24:51;;;;;;;22.13;3.30;;;;;;;;;;5051074;28;20100;-66
2023/12/10 10:27:17;;;;;;;25.63;3.05;;;;;;;;;;5051395;28;20049;-66
2023/12/10 10:29:43;;;;;;;37.15;3.03;;;;;;;;;;5044631;28;20029;-66
2023/12/10 10:32:14;;;;;;;26.58;3.17;;;;;;;;;;5049086;28;20110;-67
2023/12/10 10:34:40;;;;;;;31.60;3.03;;;;;;;;;;5049319;28;20711;-66
2023/12/10 10:37:05;;;;;;;24.60;3.10;;;;;;;;;;5049585;28;20049;-67
2023/12/10 10:39:30;;;;;;;30.10;3.03;;;;;;;;;;5047534;28;20362;-68
2023/12/10 10:41:56;;;;;;;29.80;2.70;;;;;;;;;;5049175;28;20384;-66
2023/12/10 10:44:21;;;;;;;20.88;2.80;;;;;;;;;;5050497;28;20041;-67
2023/12/10 10:46:47;;;;;;;21.17;2.60;;;;;;;;;;5050906;28;20060;-66
2023/12/10 10:49:13;;;;;;;23.17;2.30;;;;;;;;;;5050394;28;20424;-66
2023/12/10 10:51:39;;;;;;;27.83;2.90;;;;;;;;;;5050302;28;20044;-67
2023/12/10 10:54:04;;;;;;;27.77;3.00;;;;;;;;;;5048664;28;20032;-67
2023/12/10 10:56:30;;;;;;;21.70;3.22;;;;;;;;;;5050651;28;20044;-66
2023/12/10 10:58:55;;;;;;;30.90;4.78;;;;;;;;;;5046144;28;20452;-67
2023/12/10 11:01:41;;;;;;;28.10;3.25;;;;;;;;;;5050195;28;20030;-66
2023/12/10 11:04:10;;;;;;;24.23;3.80;;;;;;;;;;5045759;28;20037;-66
2023/12/10 11:06:36;;;;;;;21.10;3.25;;;;;;;;;;5048151;28;20029;-66
2023/12/10 11:09:01;;;;;;;24.63;2.80;;;;;;;;;;5051997;28;20044;-67
2023/12/10 11:11:27;;;;;;;24.48;2.83;;;;;;;;;;5052823;28;20040;-67
2023/12/10 11:13:53;;;;;;;22.10;3.97;;;;;;;;;;5052963;28;20025;-67
2023/12/10 11:16:19;;;;;;;16.85;3.17;;;;;;;;;;5050316;28;20365;-66
2023/12/10 11:18:57;;;;;;;24.60;3.47;;;;;;;;;;5050247;28;20048;-67
2023/12/10 11:21:22;;;;;;;12.30;3.00;;;;;;;;;;5049598;28;20035;-67
2023/12/10 11:23:48;;;;;;;17.13;3.38;;;;;;;;;;5054430;28;20033;-67
2023/12/10 11:26:13;;;;;;;26.92;2.92;;;;;;;;;;5059832;28;20385;-67
2023/12/10 11:28:40;;;;;;;17.60;2.30;;;;;;;;;;5050114;28;20029;-67
2023/12/10 11:31:06;;;;;;;18.25;1.77;;;;;;;;;;5053383;28;20049;-67
2023/12/10 11:33:31;;;;;;;20.27;2.40;;;;;;;;;;5049067;28;20036;-67
2023/12/10 11:35:57;;;;;;;14.00;1.75;;;;;;;;;;5053831;28;20519;-68
2023/12/10 11:38:23;;;;;;;10.35;1.30;;;;;;;;;;5060072;28;20032;-67
2023/12/10 11:40:48;;;;;;;12.95;1.63;;;;;;;;;;5058172;28;20025;-67
2023/12/10 11:43:14;;;;;;;4.13;1.13;;;;;;;;;;5058393;28;20033;-67
2023/12/10 11:45:39;;;;;;;16.27;1.80;;;;;;;;;;5060462;28;20181;-68
2023/12/10 11:48:05;;;;;;;11.15;1.75;;;;;;;;;;5063807;28;20052;-68
2023/12/10 11:50:31;;;;;;;4.78;0.98;;;;;;;;;;5048781;28;20396;-67
2023/12/10 11:52:56;;;;;;;8.40;1.15;;;;;;;;;;5056187;28;20098;-68
2023/12/10 11:55:22;;;;;;;9.20;1.20;;;;;;;;;;5054498;28;20413;-67
2023/12/10 11:57:47;;;;;;;3.38;0.90;;;;;;;;;;5048296;28;20037;-67
2023/12/10 12:00:13;;;;;;;4.05;1.35;;;;;;;;;;5049894;28;20033;-66
2023/12/10 12:02:41;;;;;;;10.07;1.55;;;;;;;;;;5048752;28;20028;-66
2023/12/10 12:05:10;;;;;;;9.88;1.80;;;;;;;;;;5049772;28;20029;-67
2023/12/10 12:07:36;;;;;;;9.38;1.40;;;;;;;;;;5049926;28;20576;-67
2023/12/10 12:10:02;;;;;;;8.10;1.30;;;;;;;;;;5050006;28;20103;-67
2023/12/10 12:12:27;;;;;;;6.05;1.50;;;;;;;;;;5049669;28;20480;-66
2023/12/10 12:14:52;;;;;;;12.07;1.83;;;;;;;;;;5049793;28;20522;-67
2023/12/10 12:17:24;;;;;;;12.40;2.15;;;;;;;;;;5049865;28;20028;-67
2023/12/10 12:19:49;;;;;;;7.18;1.30;;;;;;;;;;5052132;28;20098;-68
2023/12/10 12:22:14;;;;;;;8.60;1.63;;;;;;;;;;5056856;28;20592;-67
2023/12/10 12:24:40;;;;;;;5.13;1.40;;;;;;;;;;5058431;28;20056;-67
2023/12/10 12:27:06;;;;;;;4.53;1.20;;;;;;;;;;5057623;28;20056;-67
2023/12/10 12:29:32;;;;;;;7.57;2.70;;;;;;;;;;5051015;28;20033;-67
2023/12/10 12:31:57;;;;;;;2.95;1.00;;;;;;;;;;5054330;28;20049;-67
2023/12/10 12:34:22;;;;;;;5.65;1.63;;;;;;;;;;5052787;28;20029;-67
2023/12/10 12:36:48;;;;;;;9.35;1.45;;;;;;;;;;5053205;28;20047;-67
2023/12/10 12:39:13;;;;;;;9.18;1.60;;;;;;;;;;5053284;28;20056;-66
2023/12/10 12:41:39;;;;;;;5.00;1.23;;;;;;;;;;5053159;28;20464;-67
2023/12/10 12:44:04;;;;;;;3.90;0.95;;;;;;;;;;5056314;28;20457;-67
2023/12/10 12:46:29;;;;;;;5.45;1.08;;;;;;;;;;5059723;28;20063;-67
2023/12/10 12:48:55;;;;;;;5.82;1.60;;;;;;;;;;5052915;28;20028;-68
2023/12/10 12:51:20;;;;;;;3.35;0.85;;;;;;;;;;5053005;28;20044;-66
2023/12/10 12:53:45;;;;;;;6.50;1.25;;;;;;;;;;5053153;28;20572;-67
2023/12/10 12:56:11;;;;;;;4.05;0.95;;;;;;;;;;5052636;28;20040;-67
2023/12/10 12:58:36;;;;;;;7.13;1.23;;;;;;;;;;5060746;28;20560;-67
2023/12/10 13:01:01;;;;;;;6.88;1.60;;;;;;;;;;5056519;28;20032;-67
2023/12/10 13:03:27;;;;;;;5.68;1.38;;;;;;;;;;5064766;28;20067;-67
2023/12/10 13:05:52;;;;;;;9.82;1.60;;;;;;;;;;5062978;28;20037;-67
2023/12/10 13:08:17;;;;;;;11.73;1.95;;;;;;;;;;5059930;28;20036;-67
2023/12/10 13:10:43;;;;;;;7.63;2.00;;;;;;;;;;5061489;28;20119;-67
2023/12/10 13:13:08;;;;;;;11.90;1.33;;;;;;;;;;5062962;28;20051;-67
2023/12/10 13:15:34;;;;;;;12.93;2.05;;;;;;;;;;5063654;28;20055;-67
2023/12/10 13:17:59;;;;;;;13.48;1.88;;;;;;;;;;5056730;28;20385;-67
2023/12/10 13:20:24;;;;;;;10.90;1.60;;;;;;;;;;5052447;28;20466;-67
2023/12/10 13:22:50;;;;;;;12.13;3.28;;;;;;;;;;5052701;28;20032;-67
2023/12/10 13:25:16;;;;;;;12.00;2.60;;;;;;;;;;5052204;28;20033;-67
2023/12/10 13:27:41;;;;;;;12.52;2.17;;;;;;;;;;5052360;28;20599;-67
2023/12/10 13:30:07;;;;;;;13.02;1.90;;;;;;;;;;5051753;28;20029;-67
2023/12/10 13:32:34;;;;;;;8.75;1.70;;;;;;;;;;5047280;28;20087;-67
2023/12/10 13:34:59;;;;;;;10.32;2.05;;;;;;;;;;5051198;28;20079;-68
2023/12/10 13:37:24;;;;;;;7.32;2.03;;;;;;;;;;5052050;28;20045;-67
2023/12/10 13:39:50;;;;;;;9.25;2.03;;;;;;;;;;5052005;28;20048;-67
2023/12/10 13:42:15;;;;;;;18.83;2.47;;;;;;;;;;5052183;28;20051;-67
2023/12/10 13:44:41;;;;;;;14.50;2.80;;;;;;;;;;5052144;28;20045;-67
2023/12/10 13:47:08;;;;;;;11.93;2.33;;;;;;;;;;5052097;28;20487;-67
2023/12/10 13:49:34;;;;;;;16.33;2.53;;;;;;;;;;5048393;28;20029;-68
2023/12/10 13:52:00;;;;;;;17.83;2.83;;;;;;;;;;5049365;28;20676;-67
2023/12/10 13:54:25;;;;;;;18.05;3.13;;;;;;;;;;5047830;28;20048;-67
2023/12/10 13:56:53;;;;;;;20.95;2.83;;;;;;;;;;5049854;28;20037;-68
2023/12/10 13:59:18;;;;;;;19.90;3.28;;;;;;;;;;5049016;28;20107;-67
2023/12/10 14:01:44;;;;;;;15.63;2.63;;;;;;;;;;5048823;28;20128;-67
2023/12/10 14:04:09;;;;;;;19.23;2.67;;;;;;;;;;5048668;28;20480;-68
2023/12/10 14:06:34;;;;;;;10.77;2.25;;;;;;;;;;5051320;28;20082;-67
2023/12/10 14:09:00;;;;;;;18.98;2.55;;;;;;;;;;5051265;28;20037;-67
2023/12/10 14:11:25;;;;;;;20.13;2.92;;;;;;;;;;5051465;28;20040;-67
2023/12/10 14:13:50;;;;;;;30.13;3.22;;;;;;;;;;5051495;28;20478;-67
2023/12/10 14:16:16;;;;;;;23.88;2.83;;;;;;;;;;5051277;28;20025;-66
2023/12/10 14:18:41;;;;;;;21.20;3.10;;;;;;;;;;5051650;28;20039;-67
2023/12/10 14:21:07;;;;;;;23.30;3.30;;;;;;;;;;5051404;28;20104;-67
2023/12/10 14:23:32;;;;;;;21.90;3.05;;;;;;;;;;5051325;28;20113;-66